createdAt,value
2023-03-19T00:00:31.286Z,16.83
2023-03-19T00:02:59.120Z,16.23
2023-03-19T00:05:26.574Z,16.13
2023-03-19T00:07:53.921Z,16.65
2023-03-19T00:10:21.765Z,16.62
2023-03-19T00:12:49.136Z,15.57
2023-03-19T00:15:16.604Z,16.42
2023-03-19T00:17:44.298Z,16.70
2023-03-19T00:20:12.441Z,17.33
2023-03-19T00:22:40.205Z,16.17
2023-03-19T00:25:08.723Z,16.90
2023-03-19T00:27:37.533Z,16.13
2023-03-19T00:30:06.268Z,15.63
2023-03-19T00:32:35.726Z,16.77
2023-03-19T00:35:04.091Z,17.05
2023-03-19T00:37:31.448Z,16.80
2023-03-19T00:39:59.739Z,15.60
2023-03-19T00:42:27.122Z,16.37
2023-03-19T00:44:54.488Z,17.00
2023-03-19T00:47:22.542Z,17.17
2023-03-19T00:49:49.899Z,16.63
2023-03-19T00:52:17.236Z,17.92
2023-03-19T00:54:44.845Z,16.80
2023-03-19T00:57:12.187Z,17.15
2023-03-19T00:59:39.573Z,17.52
2023-03-19T01:02:07.231Z,17.03
2023-03-19T01:04:34.676Z,16.23
2023-03-19T01:07:02.098Z,16.00
2023-03-19T01:09:29.759Z,17.75
2023-03-19T01:11:57.173Z,16.33
2023-03-19T01:14:24.730Z,17.43
2023-03-19T01:16:52.392Z,16.35
2023-03-19T01:19:20.154Z,16.00
2023-03-19T01:21:49.496Z,16.00
2023-03-19T01:24:17.473Z,16.10
2023-03-19T01:26:45.717Z,16.05
2023-03-19T01:29:13.876Z,16.83
2023-03-19T01:31:41.521Z,15.98
2023-03-19T01:34:09.031Z,15.63
2023-03-19T01:36:36.709Z,15.50
2023-03-19T01:39:04.425Z,16.27
2023-03-19T01:41:32.104Z,16.53
2023-03-19T01:43:59.596Z,15.47
2023-03-19T01:46:32.610Z,15.83
2023-03-19T01:49:03.409Z,16.87
2023-03-19T01:51:34.834Z,15.00
2023-03-19T01:54:07.739Z,16.00
2023-03-19T01:56:37.071Z,15.20
2023-03-19T01:59:12.302Z,15.33
2023-03-19T02:01:46.496Z,16.75
2023-03-19T02:04:14.207Z,15.93
2023-03-19T02:06:42.916Z,16.53
2023-03-19T02:09:10.482Z,16.80
2023-03-19T02:11:38.117Z,17.10
2023-03-19T02:14:05.577Z,16.60
2023-03-19T02:16:33.304Z,17.03
2023-03-19T02:19:01.477Z,24.17
2023-03-19T02:21:28.878Z,26.23
2023-03-19T02:24:03.702Z,24.57
2023-03-19T02:26:32.974Z,20.08
2023-03-19T02:29:00.962Z,20.10
2023-03-19T02:31:28.840Z,20.70
2023-03-19T02:34:21.377Z,18.33
2023-03-19T02:36:55.860Z,18.03
2023-03-19T02:39:29.532Z,17.00
2023-03-19T02:41:57.177Z,18.67
2023-03-19T02:44:25.051Z,17.53
2023-03-19T02:46:52.677Z,16.10
2023-03-19T02:49:20.436Z,16.47
2023-03-19T02:51:47.793Z,15.53
2023-03-19T02:54:15.340Z,16.60
2023-03-19T02:56:42.969Z,15.33
2023-03-19T02:59:10.372Z,17.47
2023-03-19T03:01:37.809Z,17.00
2023-03-19T03:04:05.839Z,17.20
2023-03-19T03:06:33.162Z,15.63
2023-03-19T03:09:02.204Z,15.53
2023-03-19T03:11:29.835Z,15.40
2023-03-19T03:13:57.730Z,16.37
2023-03-19T03:16:25.478Z,15.67
2023-03-19T03:18:53.194Z,15.00
2023-03-19T03:21:21.567Z,14.47
2023-03-19T03:23:49.010Z,14.80
2023-03-19T03:26:16.638Z,14.20
2023-03-19T03:28:44.169Z,14.97
2023-03-19T03:31:12.064Z,14.90
2023-03-19T03:33:40.702Z,13.37
2023-03-19T03:36:08.487Z,13.83
2023-03-19T03:38:36.067Z,13.43
2023-03-19T03:41:03.717Z,14.27
2023-03-19T03:43:31.205Z,14.27
2023-03-19T03:45:58.918Z,13.20
2023-03-19T03:48:27.025Z,14.33
2023-03-19T03:50:54.457Z,13.80
2023-03-19T03:53:22.276Z,13.87
2023-03-19T03:55:50.001Z,13.77
2023-03-19T03:58:19.267Z,13.77
2023-03-19T04:00:47.848Z,14.50
2023-03-19T04:03:15.530Z,15.50
2023-03-19T04:05:44.413Z,15.23
2023-03-19T04:08:12.252Z,13.20
2023-03-19T04:10:42.400Z,13.20
2023-03-19T04:13:10.442Z,13.30
2023-03-19T04:15:38.612Z,14.03
2023-03-19T04:18:06.302Z,13.83
2023-03-19T04:20:33.881Z,13.90
2023-03-19T04:23:02.134Z,13.40
2023-03-19T04:25:30.131Z,13.47
2023-03-19T04:27:58.254Z,12.70
2023-03-19T04:30:26.316Z,12.57
2023-03-19T04:32:53.981Z,12.57
2023-03-19T04:35:21.575Z,12.23
2023-03-19T04:37:49.020Z,11.50
2023-03-19T04:40:18.416Z,12.70
2023-03-19T04:42:46.284Z,12.83
2023-03-19T04:45:14.164Z,11.83
2023-03-19T04:47:42.591Z,12.77
2023-03-19T04:50:10.479Z,13.47
2023-03-19T04:52:37.929Z,12.13
2023-03-19T04:55:06.490Z,14.50
2023-03-19T04:57:36.848Z,13.97
2023-03-19T05:00:04.635Z,14.30
2023-03-19T05:02:33.987Z,13.10
2023-03-19T05:05:01.855Z,11.73
2023-03-19T05:07:29.740Z,12.23
2023-03-19T05:09:58.231Z,14.17
2023-03-19T05:12:26.015Z,12.17
2023-03-19T05:14:54.772Z,12.50
2023-03-19T05:17:22.653Z,11.83
2023-03-19T05:19:50.247Z,12.30
2023-03-19T05:22:18.090Z,11.93
2023-03-19T05:24:46.346Z,11.57
2023-03-19T05:27:13.959Z,12.77
2023-03-19T05:29:42.563Z,13.17
2023-03-19T05:32:11.133Z,13.00
2023-03-19T05:34:39.031Z,12.43
2023-03-19T05:37:06.742Z,11.90
2023-03-19T05:39:35.450Z,12.10
2023-03-19T05:42:03.118Z,13.00
2023-03-19T05:44:30.540Z,13.10
2023-03-19T05:46:58.356Z,13.47
2023-03-19T05:49:26.812Z,12.80
2023-03-19T05:51:54.238Z,12.60
2023-03-19T05:54:21.927Z,12.50
2023-03-19T05:56:49.471Z,13.70
2023-03-19T05:59:17.420Z,12.27
2023-03-19T06:01:46.397Z,11.80
2023-03-19T06:04:14.276Z,12.00
2023-03-19T06:06:42.284Z,11.80
2023-03-19T06:09:09.709Z,10.30
2023-03-19T06:11:39.570Z,12.13
2023-03-19T06:14:08.440Z,10.10
2023-03-19T06:16:37.501Z,11.10
2023-03-19T06:19:05.894Z,11.12
2023-03-19T06:21:33.270Z,10.60
2023-03-19T06:24:01.407Z,10.82
2023-03-19T06:26:29.220Z,10.45
2023-03-19T06:28:57.551Z,9.80
2023-03-19T06:31:25.851Z,10.88
2023-03-19T06:33:55.145Z,10.77
2023-03-19T06:36:22.765Z,10.82
2023-03-19T06:38:50.640Z,9.88
2023-03-19T06:41:18.025Z,10.85
2023-03-19T06:43:46.299Z,10.45
2023-03-19T06:46:13.977Z,10.93
2023-03-19T06:48:41.358Z,10.13
2023-03-19T06:51:08.686Z,11.15
2023-03-19T06:53:36.348Z,10.15
2023-03-19T06:56:04.172Z,11.00
2023-03-19T06:58:31.572Z,9.82
2023-03-19T07:00:59.792Z,10.25
2023-03-19T07:03:27.169Z,10.77
2023-03-19T07:05:54.617Z,11.30
2023-03-19T07:08:22.301Z,10.75
2023-03-19T07:10:49.642Z,10.98
2023-03-19T07:13:17.058Z,10.75
2023-03-19T07:15:44.712Z,10.38
2023-03-19T07:18:12.339Z,11.20
2023-03-19T07:20:39.678Z,10.68
2023-03-19T07:23:07.300Z,10.75
2023-03-19T07:25:34.696Z,11.10
2023-03-19T07:28:02.066Z,10.52
2023-03-19T07:30:29.737Z,10.95
2023-03-19T07:32:57.117Z,11.38
2023-03-19T07:35:24.548Z,10.85
2023-03-19T07:37:52.189Z,10.98
2023-03-19T07:40:19.622Z,11.38
2023-03-19T07:42:47.031Z,11.65
2023-03-19T07:45:14.659Z,10.50
2023-03-19T07:47:42.047Z,9.32
2023-03-19T07:50:09.907Z,11.02
2023-03-19T07:52:37.545Z,11.00
2023-03-19T07:55:05.378Z,11.38
2023-03-19T07:57:33.059Z,11.10
2023-03-19T08:00:00.678Z,11.07
2023-03-19T08:02:28.080Z,10.73
2023-03-19T08:04:56.023Z,11.43
2023-03-19T08:07:23.596Z,10.55
2023-03-19T08:09:50.995Z,10.57
2023-03-19T08:12:18.616Z,10.50
2023-03-19T08:14:46.066Z,9.55
2023-03-19T08:17:13.623Z,10.30
2023-03-19T08:19:41.325Z,11.70
2023-03-19T08:22:08.790Z,9.82
2023-03-19T08:24:36.382Z,9.82
2023-03-19T08:27:04.016Z,10.85
2023-03-19T08:29:31.438Z,11.07
2023-03-19T08:32:00.671Z,10.45
2023-03-19T08:34:28.345Z,11.50
2023-03-19T08:36:55.773Z,10.27
2023-03-19T08:39:24.043Z,10.73
2023-03-19T08:41:51.673Z,10.73
2023-03-19T08:44:19.112Z,10.85
2023-03-19T08:46:46.459Z,10.50
2023-03-19T08:49:14.090Z,10.82
2023-03-19T08:51:41.544Z,9.32
2023-03-19T08:54:11.234Z,10.00
2023-03-19T08:56:38.972Z,9.60
2023-03-19T08:59:06.358Z,10.60
2023-03-19T09:01:33.712Z,9.50
2023-03-19T09:04:02.197Z,10.13
2023-03-19T09:06:30.147Z,10.45
2023-03-19T09:08:57.539Z,9.48
2023-03-19T09:11:25.433Z,11.00
2023-03-19T09:13:52.855Z,10.73
2023-03-19T09:16:20.262Z,9.23
2023-03-19T09:18:47.873Z,11.98
2023-03-19T09:21:15.241Z,9.98
2023-03-19T09:23:42.623Z,10.60
2023-03-19T09:26:10.411Z,10.07
2023-03-19T09:28:38.132Z,10.38
2023-03-19T09:31:09.480Z,10.55
2023-03-19T09:33:37.172Z,11.00
2023-03-19T09:36:04.772Z,10.57
2023-03-19T09:38:32.149Z,10.48
2023-03-19T09:41:04.661Z,9.95
2023-03-19T09:43:35.980Z,10.35
2023-03-19T09:46:06.162Z,11.18
2023-03-19T09:48:43.290Z,11.40
2023-03-19T09:51:15.540Z,11.65
2023-03-19T09:54:15.873Z,11.30
2023-03-19T09:56:43.586Z,11.12
2023-03-19T09:59:10.977Z,10.98
2023-03-19T10:01:38.573Z,10.43
2023-03-19T10:04:38.876Z,11.07
2023-03-19T10:07:32.649Z,11.12
2023-03-19T10:10:33.444Z,11.23
2023-03-19T10:13:12.383Z,10.40
2023-03-19T10:15:39.993Z,11.40
2023-03-19T10:18:09.938Z,11.48
2023-03-19T10:21:14.627Z,11.80
2023-03-19T10:23:45.951Z,11.27
2023-03-19T10:26:15.796Z,11.00
2023-03-19T10:28:45.273Z,10.80
2023-03-19T10:31:28.378Z,10.88
2023-03-19T10:34:19.991Z,10.98
2023-03-19T10:36:47.360Z,11.70
2023-03-19T10:39:18.795Z,12.00
2023-03-19T10:41:52.089Z,11.60
2023-03-19T10:44:26.263Z,11.23
2023-03-19T10:46:53.625Z,10.98
2023-03-19T10:49:21.252Z,12.52
2023-03-19T10:51:48.737Z,11.85
2023-03-19T10:54:24.918Z,12.05
2023-03-19T10:59:27.064Z,10.43
2023-03-19T11:01:58.713Z,11.82
2023-03-19T11:04:29.638Z,10.43
2023-03-19T11:07:03.037Z,10.85
2023-03-19T11:09:56.641Z,10.32
2023-03-19T11:12:34.872Z,9.95
2023-03-19T11:15:07.506Z,9.60
2023-03-19T11:17:46.384Z,10.40
2023-03-19T11:20:36.399Z,10.07
2023-03-19T11:23:09.268Z,9.80
2023-03-19T11:25:38.840Z,9.30
2023-03-19T11:28:14.525Z,9.48
2023-03-19T11:31:09.182Z,8.85
2023-03-19T11:33:58.496Z,9.50
2023-03-19T11:36:41.948Z,9.75
2023-03-19T11:39:15.701Z,9.98
2023-03-19T11:41:47.145Z,9.90
2023-03-19T11:44:29.175Z,10.90
2023-03-19T11:47:27.542Z,10.60
2023-03-19T11:50:18.218Z,10.43
2023-03-19T11:52:54.031Z,10.45
2023-03-19T11:55:27.336Z,10.35
2023-03-19T11:58:16.177Z,10.25
2023-03-19T12:00:47.396Z,10.27
2023-03-19T12:03:35.143Z,11.20
2023-03-19T12:06:30.658Z,11.35
2023-03-19T12:09:03.502Z,11.40
2023-03-19T12:11:53.467Z,11.98
2023-03-19T12:14:27.391Z,10.82
2023-03-19T12:17:24.201Z,11.07
2023-03-19T12:20:16.526Z,11.40
2023-03-19T12:22:56.882Z,11.02
2023-03-19T12:25:39.668Z,11.27
2023-03-19T12:28:12.846Z,10.52
2023-03-19T12:30:46.521Z,11.25
2023-03-19T12:33:22.140Z,11.38
2023-03-19T12:35:50.442Z,12.02
2023-03-19T12:38:21.714Z,12.18
2023-03-19T12:41:11.127Z,11.55
2023-03-19T12:44:04.247Z,11.25
2023-03-19T12:46:33.939Z,11.12
2023-03-19T12:49:10.416Z,10.98
2023-03-19T12:51:42.432Z,11.90
2023-03-19T12:54:21.431Z,10.88
2023-03-19T12:56:53.583Z,10.63
2023-03-19T12:59:43.592Z,10.77
2023-03-19T13:02:29.851Z,10.77
2023-03-19T13:05:01.712Z,11.65
2023-03-19T13:07:34.276Z,10.70
2023-03-19T13:10:09.152Z,12.23
2023-03-19T13:12:37.606Z,11.52
2023-03-19T13:15:21.008Z,11.65
2023-03-19T13:18:00.848Z,11.85
2023-03-19T13:20:53.331Z,11.18
2023-03-19T13:23:32.244Z,11.65
2023-03-19T13:26:00.206Z,11.57
2023-03-19T13:28:54.407Z,11.30
2023-03-19T13:31:26.299Z,10.98
2023-03-19T13:34:24.826Z,11.88
2023-03-19T13:37:07.055Z,11.23
2023-03-19T13:39:34.537Z,11.18
2023-03-19T13:42:20.259Z,11.25
2023-03-19T13:45:30.068Z,11.40
2023-03-19T13:47:59.189Z,12.65
2023-03-19T13:50:28.239Z,12.73
2023-03-19T13:53:22.326Z,12.98
2023-03-19T13:56:00.118Z,12.30
2023-03-19T13:58:47.273Z,12.23
2023-03-19T14:01:27.495Z,12.05
2023-03-19T14:03:59.292Z,11.75
2023-03-19T14:06:32.729Z,11.57
2023-03-19T14:09:00.502Z,12.50
2023-03-19T14:11:35.994Z,12.52
2023-03-19T14:14:05.596Z,12.18
2023-03-19T14:16:37.939Z,12.25
2023-03-19T14:19:11.405Z,12.75
2023-03-19T14:21:51.268Z,12.20
2023-03-19T14:24:58.508Z,13.18
2023-03-19T14:27:32.985Z,12.57
2023-03-19T14:30:11.671Z,11.85
2023-03-19T14:32:42.456Z,11.85
2023-03-19T14:35:13.184Z,12.18
2023-03-19T14:37:46.447Z,12.30
2023-03-19T14:40:19.285Z,12.50
2023-03-19T14:43:08.421Z,11.68
2023-03-19T14:46:01.230Z,11.25
2023-03-19T14:48:50.946Z,11.27
2023-03-19T14:51:33.819Z,11.82
2023-03-19T14:54:27.284Z,12.43
2023-03-19T14:56:56.449Z,11.65
2023-03-19T14:59:23.843Z,11.75
2023-03-19T15:01:53.230Z,11.82
2023-03-19T15:04:22.650Z,11.23
2023-03-19T15:06:55.575Z,11.05
2023-03-19T15:09:27.191Z,11.35
2023-03-19T15:12:14.350Z,11.15
2023-03-19T15:15:14.355Z,11.30
2023-03-19T15:17:45.315Z,11.18
2023-03-19T15:20:21.430Z,10.38
2023-03-19T15:22:55.489Z,10.95
2023-03-19T15:25:23.214Z,11.25
2023-03-19T15:28:13.568Z,11.35
2023-03-19T15:30:53.712Z,11.00
2023-03-19T15:33:39.188Z,10.73
2023-03-19T15:36:09.190Z,11.32
2023-03-19T15:38:40.036Z,10.82
2023-03-19T15:41:07.848Z,11.35
2023-03-19T15:43:36.294Z,10.65
2023-03-19T15:46:03.732Z,11.27
2023-03-19T15:48:38.291Z,10.30
2023-03-19T15:51:05.919Z,11.15
2023-03-19T15:53:33.768Z,10.52
2023-03-19T15:56:02.420Z,10.38
2023-03-19T15:58:31.737Z,11.10
2023-03-19T16:00:59.801Z,11.70
2023-03-19T16:03:37.747Z,13.30
2023-03-19T16:06:06.614Z,11.48
2023-03-19T16:08:34.273Z,12.50
2023-03-19T16:11:26.333Z,13.32
2023-03-19T16:14:10.726Z,11.73
2023-03-19T16:16:39.502Z,11.98
2023-03-19T16:19:34.461Z,12.13
2023-03-19T16:22:03.239Z,11.77
2023-03-19T16:24:34.155Z,12.85
2023-03-19T16:27:03.846Z,12.82
2023-03-19T16:29:43.878Z,14.77
2023-03-19T16:32:20.533Z,15.23
2023-03-19T16:34:50.957Z,15.52
2023-03-19T16:37:33.138Z,14.13
2023-03-19T16:40:02.561Z,14.35
2023-03-19T16:42:30.866Z,12.13
2023-03-19T16:44:58.328Z,11.85
2023-03-19T16:47:25.998Z,11.98
2023-03-19T16:49:53.350Z,13.15
2023-03-19T16:52:22.297Z,15.23
2023-03-19T16:54:50.059Z,14.50
2023-03-19T16:57:17.544Z,13.45
2023-03-19T16:59:45.309Z,12.18
2023-03-19T17:02:13.477Z,11.45
2023-03-19T17:04:40.930Z,14.40
2023-03-19T17:07:08.559Z,18.12
2023-03-19T17:09:36.287Z,14.07
2023-03-19T17:12:04.167Z,12.07
2023-03-19T17:14:31.527Z,10.65
2023-03-19T17:16:59.153Z,11.15
2023-03-19T17:19:28.860Z,11.10
2023-03-19T17:21:57.330Z,11.12
2023-03-19T17:24:29.528Z,12.18
2023-03-19T17:26:57.877Z,10.70
2023-03-19T17:29:26.186Z,11.18
2023-03-19T17:31:53.979Z,12.32
2023-03-19T17:34:23.343Z,11.98
2023-03-19T17:37:01.089Z,12.10
2023-03-19T17:39:32.028Z,13.00
2023-03-19T17:41:59.736Z,13.10
2023-03-19T17:44:27.946Z,12.77
2023-03-19T17:46:55.573Z,15.75
2023-03-19T17:49:29.059Z,15.80
2023-03-19T17:51:56.476Z,16.00
2023-03-19T17:54:26.791Z,15.85
2023-03-19T17:56:54.795Z,15.38
2023-03-19T17:59:22.898Z,15.45
2023-03-19T18:01:50.674Z,15.57
2023-03-19T18:04:20.466Z,18.23
2023-03-19T18:06:53.981Z,15.60
2023-03-19T18:09:23.532Z,15.80
2023-03-19T18:11:50.933Z,17.05
2023-03-19T18:14:18.329Z,16.08
2023-03-19T18:16:46.394Z,16.15
2023-03-19T18:19:28.261Z,14.15
2023-03-19T18:21:55.916Z,14.63
2023-03-19T18:24:23.300Z,14.38
2023-03-19T18:26:50.669Z,21.65
2023-03-19T18:29:18.342Z,25.00
2023-03-19T18:31:45.914Z,21.50
2023-03-19T18:34:13.846Z,17.98
2023-03-19T18:36:41.505Z,17.77
2023-03-19T18:39:15.565Z,21.12
2023-03-19T18:41:43.411Z,18.98
2023-03-19T18:44:12.297Z,18.65
2023-03-19T18:46:39.887Z,17.30
2023-03-19T18:49:20.451Z,17.20
2023-03-19T18:52:01.040Z,16.92
2023-03-19T18:54:31.185Z,16.98
2023-03-19T18:56:59.950Z,18.48
2023-03-19T18:59:30.339Z,20.50
2023-03-19T19:02:03.311Z,25.85
2023-03-19T19:04:31.500Z,20.55
2023-03-19T19:06:59.838Z,20.67
2023-03-19T19:09:27.588Z,21.48
2023-03-19T19:11:57.428Z,21.83
2023-03-19T19:14:25.274Z,28.52
2023-03-19T19:16:52.745Z,25.42
2023-03-19T19:19:23.624Z,25.35
2023-03-19T19:21:51.510Z,25.08
2023-03-19T19:24:18.895Z,24.50
2023-03-19T19:26:47.215Z,27.52
2023-03-19T19:29:23.535Z,26.87
2023-03-19T19:31:50.955Z,26.23
2023-03-19T19:34:18.598Z,23.25
2023-03-19T19:36:46.069Z,22.55
2023-03-19T19:39:13.433Z,20.40
2023-03-19T19:41:43.555Z,19.80
2023-03-19T19:44:18.378Z,20.33
2023-03-19T19:46:46.224Z,18.20
2023-03-19T19:49:16.629Z,17.55
2023-03-19T19:51:43.986Z,17.67
2023-03-19T19:54:11.615Z,18.65
2023-03-19T19:56:39.267Z,17.92
2023-03-19T19:59:06.920Z,16.80
2023-03-19T20:01:34.609Z,18.05
2023-03-19T20:04:03.970Z,17.73
2023-03-19T20:06:31.892Z,17.20
2023-03-19T20:08:59.513Z,17.30
2023-03-19T20:11:27.178Z,16.05
2023-03-19T20:13:55.537Z,16.00
2023-03-19T20:16:24.966Z,16.05
2023-03-19T20:18:54.747Z,16.65
2023-03-19T20:21:22.695Z,16.55
2023-03-19T20:23:53.038Z,16.62
2023-03-19T20:26:22.162Z,16.42
2023-03-19T20:28:49.555Z,17.25
2023-03-19T20:31:26.025Z,15.77
2023-03-19T20:33:53.668Z,16.08
2023-03-19T20:36:21.049Z,16.20
2023-03-19T20:38:48.470Z,16.67
2023-03-19T20:41:20.195Z,16.85
2023-03-19T20:43:47.642Z,16.25
2023-03-19T20:46:15.244Z,16.30
2023-03-19T20:48:42.909Z,14.75
2023-03-19T20:51:10.599Z,17.15
2023-03-19T20:53:37.983Z,16.85
2023-03-19T20:56:10.404Z,17.17
2023-03-19T20:58:37.749Z,16.33
2023-03-19T21:01:05.608Z,17.85
2023-03-19T21:03:33.666Z,18.23
2023-03-19T21:06:02.557Z,14.90
2023-03-19T21:08:37.378Z,17.95
2023-03-19T21:11:05.447Z,17.20
2023-03-19T21:13:32.859Z,17.33
2023-03-19T21:16:00.366Z,16.83
2023-03-19T21:18:28.027Z,16.10
2023-03-19T21:20:55.801Z,16.35
2023-03-19T21:23:31.705Z,15.00
2023-03-19T21:25:59.492Z,15.40
2023-03-19T21:28:31.736Z,15.13
2023-03-19T21:30:59.367Z,15.45
2023-03-19T21:33:28.454Z,14.70
2023-03-19T21:35:56.423Z,14.85
2023-03-19T21:38:24.172Z,15.07
2023-03-19T21:40:52.413Z,15.18
2023-03-19T21:43:43.536Z,15.73
2023-03-19T21:46:23.771Z,14.68
2023-03-19T21:48:53.332Z,15.35
2023-03-19T21:51:21.142Z,16.02
2023-03-19T21:53:48.667Z,15.25
2023-03-19T21:56:33.386Z,14.87
2023-03-19T21:59:02.535Z,15.07
2023-03-19T22:01:29.962Z,14.77
2023-03-19T22:03:57.845Z,14.93
2023-03-19T22:06:25.649Z,14.75
2023-03-19T22:08:56.252Z,15.07
2023-03-19T22:11:31.503Z,13.43
2023-03-19T22:14:04.657Z,14.10
2023-03-19T22:16:32.358Z,14.63
2023-03-19T22:18:59.787Z,14.63
2023-03-19T22:21:29.969Z,13.90
2023-03-19T22:23:57.618Z,15.27
2023-03-19T22:26:35.778Z,13.32
2023-03-19T22:29:25.281Z,13.65
2023-03-19T22:31:53.049Z,13.90
2023-03-19T22:34:22.987Z,14.02
2023-03-19T22:36:50.505Z,15.40
2023-03-19T22:39:17.851Z,14.27
2023-03-19T22:41:46.425Z,14.85
2023-03-19T22:44:24.541Z,14.02
2023-03-19T22:46:52.516Z,13.75
2023-03-19T22:49:19.886Z,14.65
2023-03-19T22:51:47.454Z,14.07
2023-03-19T22:54:15.122Z,14.48
2023-03-19T22:56:42.482Z,14.18
2023-03-19T22:59:09.900Z,15.25
2023-03-19T23:01:41.857Z,14.68
2023-03-19T23:04:25.909Z,14.18
2023-03-19T23:06:54.265Z,14.57
2023-03-19T23:09:26.137Z,15.95
2023-03-19T23:11:53.946Z,13.75
2023-03-19T23:14:29.522Z,15.20
2023-03-19T23:17:00.794Z,15.23
2023-03-19T23:19:30.075Z,15.80
2023-03-19T23:21:58.691Z,14.95
2023-03-19T23:24:26.560Z,14.80
2023-03-19T23:26:54.516Z,15.05
2023-03-19T23:29:24.551Z,16.33
2023-03-19T23:31:51.992Z,14.40
2023-03-19T23:34:19.389Z,15.57
2023-03-19T23:36:47.376Z,14.90
2023-03-19T23:39:15.237Z,15.48
2023-03-19T23:41:49.971Z,15.15
2023-03-19T23:44:17.761Z,16.27
2023-03-19T23:46:46.033Z,15.70
2023-03-19T23:49:20.644Z,14.90
2023-03-19T23:51:48.261Z,14.02
2023-03-19T23:54:31.280Z,15.00
2023-03-19T23:56:59.960Z,15.32
2023-03-19T23:59:27.575Z,14.95
